Excellent Pescadores — HORK — position and weather

sailwx.info

Track history (hours):
 
Tides and Currents Weather Stations Pressure Air Temp Water Temp Dewpoint Dewpoint Depression Visibility Wind Speed Wind Dir Waves Ship Positions

Excellent Pescadores

Last reported at 2018-Apr-23 10:13 UTC. Time now 2018-Apr-26 18:47 UTC.
Position N 01°26' E 104°31'.

Length 148 m; draft 9.4 m.

Type: Cargo ship. MMSI: 356291000.

Date/timePositionNaut miles runAvg speedWind from/ knotsBaromVisibWave heightAir tempDewpointWater temp
2018-Apr-23 10:13N 01°26' E 104°31'310.9
2018-Apr-23 09:56N 01°24' E 104°28'610.6
2018-Apr-23 09:24N 01°21' E 104°24'510.1
2018-Apr-23 08:52N 01°17' E 104°20'4 9.9
2018-Apr-23 08:30N 01°16' E 104°16'510.4
2018-Apr-23 07:59N 01°16' E 104°11'511.0
2018-Apr-23 07:30N 01°15' E 104°06'510.4
2018-Apr-23 06:59N 01°14' E 104°00'4 8.3
2018-Apr-23 06:31N 01°15' E 103°56'3 4.7
2018-Apr-23 05:59N 01°17' E 103°54'0 0.1
2018-Apr-23 05:29N 01°17' E 103°54'0 0.0
2018-Apr-23 04:58N 01°17' E 103°54'0 0.1
2018-Apr-23 04:29N 01°17' E 103°54'0 0.1
2018-Apr-23 03:59N 01°17' E 103°54'0 0.0
2018-Apr-23 03:25N 01°17' E 103°54'0 0.1
2018-Apr-23 02:52N 01°17' E 103°54'0 0.0
2018-Apr-23 02:19N 01°17' E 103°54'0 0.0
2018-Apr-23 01:58N 01°17' E 103°54'0 0.0
2018-Apr-23 01:16N 01°17' E 103°54'0 0.0
2018-Apr-22 22:28N 01°17' E 103°54'0 0.0
2018-Apr-22 21:46N 01°17' E 103°54'0 0.0
2018-Apr-22 20:05N 01°17' E 103°54'0 1.6
2018-Apr-22 19:59N 01°16' E 103°54'3 5.1
2018-Apr-22 19:29N 01°16' E 103°57'2 3.5
2018-Apr-22 18:59N 01°14' E 103°57'3 5.9
2018-Apr-22 18:30N 01°12' E 103°54'5 9.2
2018-Apr-22 17:59N 01°11' E 103°50'5 9.8
2018-Apr-22 17:30N 01°08' E 103°46'510.4
2018-Apr-22 16:59N 01°04' E 103°42'4 9.4
2018-Apr-22 16:30N 01°03' E 103°38'510.1
2018-Apr-22 15:58N 01°06' E 103°33'5 9.8
2018-Apr-22 15:27N 01°09' E 103°29'5 9.7
2018-Apr-22 14:57N 01°11' E 103°24'5 9.5
2018-Apr-22 14:23N 01°15' E 103°20'  
Track history (hours):
 
Tides and Currents Weather Stations Pressure Air Temp Water Temp Dewpoint Dewpoint Depression Visibility Wind Speed Wind Dir Waves Ship Positions

Excellent Pescadores

Last reported at 2018-Apr-23 10:13 UTC. Time now 2018-Apr-26 18:47 UTC.
Position N 01°26' E 104°31'.

Length 148 m; draft 9.4 m.

Type: Cargo ship. MMSI: 356291000.

Date/timePositionNaut miles runAvg speedWind from/ knotsBaromVisibWave heightAir tempDewpointWater temp
2018-Apr-23 10:13N 01°26' E 104°31'310.9
2018-Apr-23 09:56N 01°24' E 104°28'610.6
2018-Apr-23 09:24N 01°21' E 104°24'510.1
2018-Apr-23 08:52N 01°17' E 104°20'4 9.9
2018-Apr-23 08:30N 01°16' E 104°16'510.4
2018-Apr-23 07:59N 01°16' E 104°11'511.0
2018-Apr-23 07:30N 01°15' E 104°06'510.4
2018-Apr-23 06:59N 01°14' E 104°00'4 8.3
2018-Apr-23 06:31N 01°15' E 103°56'3 4.7
2018-Apr-23 05:59N 01°17' E 103°54'0 0.1
2018-Apr-23 05:29N 01°17' E 103°54'0 0.0
2018-Apr-23 04:58N 01°17' E 103°54'0 0.1
2018-Apr-23 04:29N 01°17' E 103°54'0 0.1
2018-Apr-23 03:59N 01°17' E 103°54'0 0.0
2018-Apr-23 03:25N 01°17' E 103°54'0 0.1
2018-Apr-23 02:52N 01°17' E 103°54'0 0.0
2018-Apr-23 02:19N 01°17' E 103°54'0 0.0
2018-Apr-23 01:58N 01°17' E 103°54'0 0.0
2018-Apr-23 01:16N 01°17' E 103°54'0 0.0
2018-Apr-22 22:28N 01°17' E 103°54'0 0.0
2018-Apr-22 21:46N 01°17' E 103°54'0 0.0
2018-Apr-22 20:05N 01°17' E 103°54'0 1.6
2018-Apr-22 19:59N 01°16' E 103°54'3 5.1
2018-Apr-22 19:29N 01°16' E 103°57'2 3.5
2018-Apr-22 18:59N 01°14' E 103°57'3 5.9
2018-Apr-22 18:30N 01°12' E 103°54'5 9.2
2018-Apr-22 17:59N 01°11' E 103°50'5 9.8
2018-Apr-22 17:30N 01°08' E 103°46'510.4
2018-Apr-22 16:59N 01°04' E 103°42'4 9.4
2018-Apr-22 16:30N 01°03' E 103°38'510.1
2018-Apr-22 15:58N 01°06' E 103°33'5 9.8
2018-Apr-22 15:27N 01°09' E 103°29'5 9.7
2018-Apr-22 14:57N 01°11' E 103°24'5 9.5
2018-Apr-22 14:23N 01°15' E 103°20'  

Dump ship's entire track history